JST151 YBBN-NZAA
Flight info
| Callsign | JST151 |
|---|---|
| Flight time | N/A |
| Altitude | 37000 |
| Route | SCOTT A464 UPLAR |
| Aircraft | A320/M-SDE3FGHIRWYZ/LB1 |
Departure
| Time | 2026-04-28 10:13 |
|---|---|
| Airport | Brisbane International Airport (YBBN) |
Arrival
| Time | N/A |
|---|---|
| Airport | Auckland International Airport (NZAA) |
| Time | Latitude | Longitude | Altitude | Speed | Heading |
|---|---|---|---|---|---|
| 2026-04-28 07:56 | -27.39929 | 153.11235 | 18 ft | 0 kts | 116° |
| 2026-04-28 09:55 | -27.39927 | 153.11231 | 18 ft | 2 kts | 116° |
| 2026-04-28 09:55 | -27.39919 | 153.11211 | 18 ft | 3 kts | 114° |
| 2026-04-28 09:55 | -27.39911 | 153.11190 | 18 ft | 3 kts | 110° |
| 2026-04-28 09:56 | -27.39904 | 153.11169 | 18 ft | 3 kts | 101° |
| 2026-04-28 09:56 | -27.39902 | 153.11147 | 19 ft | 3 kts | 75° |
| 2026-04-28 09:56 | -27.39908 | 153.11133 | 18 ft | 1 kts | 23° |
| 2026-04-28 09:56 | -27.39910 | 153.11132 | 18 ft | 0 kts | 21° |
| 2026-04-28 10:02 | -27.39898 | 153.11137 | 18 ft | 5 kts | 21° |
| 2026-04-28 10:02 | -27.39846 | 153.11161 | 19 ft | 11 kts | 25° |
| 2026-04-28 10:02 | -27.39775 | 153.11201 | 20 ft | 10 kts | 27° |
| 2026-04-28 10:02 | -27.39715 | 153.11242 | 18 ft | 11 kts | 49° |
| 2026-04-28 10:03 | -27.39719 | 153.11322 | 20 ft | 11 kts | 117° |
| 2026-04-28 10:03 | -27.39755 | 153.11401 | 19 ft | 12 kts | 117° |
| 2026-04-28 10:03 | -27.39795 | 153.11489 | 20 ft | 13 kts | 116° |
| 2026-04-28 10:03 | -27.39834 | 153.11576 | 20 ft | 9 kts | 117° |
| 2026-04-28 10:04 | -27.39865 | 153.11645 | 19 ft | 11 kts | 117° |
| 2026-04-28 10:04 | -27.39843 | 153.11707 | 18 ft | 9 kts | 39° |
| 2026-04-28 10:04 | -27.39792 | 153.11735 | 18 ft | 9 kts | 26° |
| 2026-04-28 10:04 | -27.39734 | 153.11768 | 18 ft | 10 kts | 27° |
| 2026-04-28 10:05 | -27.39671 | 153.11804 | 20 ft | 11 kts | 27° |
| 2026-04-28 10:05 | -27.39601 | 153.11844 | 18 ft | 12 kts | 27° |
| 2026-04-28 10:05 | -27.39524 | 153.11888 | 20 ft | 13 kts | 27° |
| 2026-04-28 10:05 | -27.39441 | 153.11935 | 20 ft | 14 kts | 26° |
| 2026-04-28 10:06 | -27.39351 | 153.11987 | 18 ft | 15 kts | 27° |
| 2026-04-28 10:06 | -27.39253 | 153.12042 | 18 ft | 16 kts | 27° |
| 2026-04-28 10:06 | -27.39147 | 153.12103 | 19 ft | 18 kts | 27° |
| 2026-04-28 10:06 | -27.39033 | 153.12170 | 19 ft | 19 kts | 27° |
| 2026-04-28 10:07 | -27.38908 | 153.12240 | 18 ft | 21 kts | 27° |
| 2026-04-28 10:07 | -27.38779 | 153.12314 | 18 ft | 19 kts | 27° |
| 2026-04-28 10:07 | -27.38654 | 153.12386 | 19 ft | 21 kts | 26° |
| 2026-04-28 10:07 | -27.38520 | 153.12461 | 18 ft | 22 kts | 27° |
| 2026-04-28 10:08 | -27.38378 | 153.12544 | 18 ft | 24 kts | 27° |
| 2026-04-28 10:08 | -27.38232 | 153.12627 | 18 ft | 21 kts | 27° |
| 2026-04-28 10:08 | -27.38098 | 153.12704 | 19 ft | 23 kts | 27° |
| 2026-04-28 10:08 | -27.37967 | 153.12778 | 19 ft | 19 kts | 26° |
| 2026-04-28 10:09 | -27.37841 | 153.12850 | 19 ft | 21 kts | 27° |
| 2026-04-28 10:09 | -27.37702 | 153.12930 | 18 ft | 23 kts | 27° |
| 2026-04-28 10:09 | -27.37588 | 153.12995 | 18 ft | 19 kts | 27° |
| 2026-04-28 10:09 | -27.37466 | 153.13065 | 18 ft | 21 kts | 27° |
| 2026-04-28 10:10 | -27.37374 | 153.13117 | 18 ft | 14 kts | 26° |
| 2026-04-28 10:10 | -27.37281 | 153.13170 | 18 ft | 10 kts | 27° |
| 2026-04-28 10:10 | -27.37267 | 153.13205 | 18 ft | 6 kts | 89° |
| 2026-04-28 10:10 | -27.37284 | 153.13250 | 18 ft | 7 kts | 118° |
| 2026-04-28 10:11 | -27.37310 | 153.13305 | 18 ft | 9 kts | 115° |
| 2026-04-28 10:11 | -27.37336 | 153.13372 | 19 ft | 10 kts | 115° |
| 2026-04-28 10:11 | -27.37389 | 153.13417 | 21 ft | 10 kts | 156° |
| 2026-04-28 10:11 | -27.37451 | 153.13435 | 22 ft | 9 kts | 184° |
| 2026-04-28 10:12 | -27.37487 | 153.13418 | 22 ft | 1 kts | 207° |
| 2026-04-28 10:12 | -27.37576 | 153.13367 | 21 ft | 43 kts | 207° |
| 2026-04-28 10:12 | -27.38047 | 153.13099 | 22 ft | 105 kts | 207° |
| 2026-04-28 10:12 | -27.38848 | 153.12640 | 21 ft | 151 kts | 207° |
| 2026-04-28 10:13 | -27.39865 | 153.12063 | 340 ft | 165 kts | 206° |
| 2026-04-28 10:13 | -27.40889 | 153.11480 | 1004 ft | 165 kts | 207° |
| 2026-04-28 10:13 | -27.41934 | 153.10897 | 1479 ft | 175 kts | 201° |
| 2026-04-28 10:13 | -27.43193 | 153.10889 | 1714 ft | 198 kts | 158° |
| 2026-04-28 10:14 | -27.44472 | 153.11669 | 2000 ft | 219 kts | 151° |
| 2026-04-28 10:14 | -27.45805 | 153.12519 | 2785 ft | 219 kts | 150° |
| 2026-04-28 10:14 | -27.47131 | 153.13360 | 3672 ft | 219 kts | 149° |
| 2026-04-28 10:14 | -27.48459 | 153.14192 | 4505 ft | 219 kts | 150° |
| 2026-04-28 10:15 | -27.49927 | 153.14710 | 5255 ft | 228 kts | 172° |
| 2026-04-28 10:15 | -27.51589 | 153.14541 | 5648 ft | 254 kts | 189° |
| 2026-04-28 10:15 | -27.53365 | 153.14093 | 6260 ft | 266 kts | 189° |
| 2026-04-28 10:15 | -27.55189 | 153.13624 | 7050 ft | 271 kts | 190° |
| 2026-04-28 10:16 | -27.57010 | 153.12965 | 7753 ft | 279 kts | 196° |
| 2026-04-28 10:16 | -27.58863 | 153.12337 | 7967 ft | 277 kts | 185° |
| 2026-04-28 10:16 | -27.60764 | 153.12411 | 8008 ft | 273 kts | 164° |
| 2026-04-28 10:16 | -27.62455 | 153.13239 | 8011 ft | 269 kts | 144° |
| 2026-04-28 10:17 | -27.63794 | 153.14730 | 8120 ft | 282 kts | 125° |
| 2026-04-28 10:17 | -27.64970 | 153.16617 | 8382 ft | 305 kts | 125° |
| 2026-04-28 10:17 | -27.66215 | 153.18615 | 8917 ft | 315 kts | 125° |
| 2026-04-28 10:17 | -27.67488 | 153.20652 | 9607 ft | 320 kts | 125° |
| 2026-04-28 10:18 | -27.68778 | 153.22719 | 10298 ft | 324 kts | 125° |
| 2026-04-28 10:18 | -27.70085 | 153.24809 | 10970 ft | 329 kts | 126° |
| 2026-04-28 10:18 | -27.71373 | 153.26961 | 11611 ft | 333 kts | 120° |
| 2026-04-28 10:18 | -27.72288 | 153.29379 | 12224 ft | 339 kts | 107° |
| 2026-04-28 10:19 | -27.72691 | 153.32014 | 12854 ft | 344 kts | 94° |
| 2026-04-28 10:19 | -27.72717 | 153.34726 | 13474 ft | 347 kts | 91° |
| 2026-04-28 10:19 | -27.72733 | 153.37467 | 14092 ft | 350 kts | 91° |
| 2026-04-28 10:19 | -27.72756 | 153.40226 | 14695 ft | 353 kts | 91° |
| 2026-04-28 10:20 | -27.72782 | 153.43013 | 15275 ft | 356 kts | 91° |
| 2026-04-28 10:20 | -27.72810 | 153.45820 | 15842 ft | 359 kts | 91° |
| 2026-04-28 10:20 | -27.72839 | 153.48651 | 16409 ft | 362 kts | 91° |
| 2026-04-28 10:20 | -27.73016 | 153.51490 | 16946 ft | 364 kts | 100° |
| 2026-04-28 10:21 | -27.73678 | 153.54253 | 17468 ft | 367 kts | 111° |
| 2026-04-28 10:21 | -27.74826 | 153.56836 | 17986 ft | 370 kts | 121° |
| 2026-04-28 10:21 | -27.76127 | 153.59305 | 18513 ft | 372 kts | 120° |
| 2026-04-28 10:21 | -27.77446 | 153.61836 | 19016 ft | 376 kts | 120° |
| 2026-04-28 10:22 | -27.78775 | 153.64400 | 19497 ft | 380 kts | 120° |
| 2026-04-28 10:22 | -27.80117 | 153.66994 | 19989 ft | 385 kts | 120° |
| 2026-04-28 10:22 | -27.81471 | 153.69614 | 20473 ft | 388 kts | 120° |
| 2026-04-28 10:22 | -27.82838 | 153.72260 | 20942 ft | 392 kts | 120° |
| 2026-04-28 10:23 | -27.84217 | 153.74930 | 21373 ft | 395 kts | 120° |
| 2026-04-28 10:23 | -27.85606 | 153.77621 | 21808 ft | 398 kts | 120° |
| 2026-04-28 10:23 | -27.87014 | 153.80334 | 22235 ft | 401 kts | 121° |
| 2026-04-28 10:23 | -27.88465 | 153.83044 | 22634 ft | 405 kts | 122° |
| 2026-04-28 10:24 | -27.89958 | 153.85762 | 23008 ft | 409 kts | 122° |
| 2026-04-28 10:24 | -27.91480 | 153.88495 | 23365 ft | 413 kts | 122° |
| 2026-04-28 10:24 | -27.93020 | 153.91253 | 23749 ft | 416 kts | 122° |
| 2026-04-28 10:24 | -27.94569 | 153.94032 | 24110 ft | 420 kts | 122° |
| 2026-04-28 10:25 | -27.96128 | 153.96840 | 24484 ft | 423 kts | 122° |
| 2026-04-28 10:25 | -27.97690 | 153.99668 | 24852 ft | 426 kts | 122° |
| 2026-04-28 10:25 | -27.99241 | 154.02488 | 25226 ft | 428 kts | 122° |
| 2026-04-28 10:25 | -28.00817 | 154.05358 | 25579 ft | 431 kts | 122° |
| 2026-04-28 10:26 | -28.02402 | 154.08254 | 25921 ft | 434 kts | 122° |
| 2026-04-28 10:26 | -28.03998 | 154.11170 | 26270 ft | 437 kts | 122° |
| 2026-04-28 10:26 | -28.05603 | 154.14103 | 26610 ft | 440 kts | 122° |
| 2026-04-28 10:26 | -28.07217 | 154.17054 | 26944 ft | 442 kts | 122° |
| 2026-04-28 10:27 | -28.08840 | 154.20022 | 27263 ft | 444 kts | 122° |
| 2026-04-28 10:27 | -28.10473 | 154.23003 | 27587 ft | 447 kts | 122° |
| 2026-04-28 10:27 | -28.12120 | 154.26010 | 27901 ft | 450 kts | 122° |
| 2026-04-28 10:27 | -28.13770 | 154.29028 | 28214 ft | 452 kts | 122° |
| 2026-04-28 10:28 | -28.15431 | 154.32070 | 28531 ft | 455 kts | 122° |
| 2026-04-28 10:28 | -28.17102 | 154.35130 | 28850 ft | 457 kts | 122° |
| 2026-04-28 10:28 | -28.18780 | 154.38203 | 29162 ft | 460 kts | 122° |
| 2026-04-28 10:29 | -28.22158 | 154.44405 | 29765 ft | 465 kts | 122° |
| 2026-04-28 10:29 | -28.23284 | 154.46475 | 29974 ft | 466 kts | 122° |
| 2026-04-28 10:29 | -28.24983 | 154.49596 | 30416 ft | 464 kts | 122° |
| 2026-04-28 10:29 | -28.26674 | 154.52705 | 30849 ft | 463 kts | 122° |
| 2026-04-28 10:30 | -28.28361 | 154.55808 | 31263 ft | 462 kts | 122° |
| 2026-04-28 10:30 | -28.30045 | 154.58908 | 31664 ft | 461 kts | 122° |
| 2026-04-28 10:30 | -28.31725 | 154.62003 | 32068 ft | 460 kts | 122° |
| 2026-04-28 10:30 | -28.33400 | 154.65098 | 32463 ft | 459 kts | 122° |
| 2026-04-28 10:31 | -28.35608 | 154.69188 | 32973 ft | 458 kts | 122° |
| 2026-04-28 10:31 | -28.36734 | 154.71273 | 33240 ft | 458 kts | 122° |
| 2026-04-28 10:31 | -28.38395 | 154.74355 | 33625 ft | 457 kts | 122° |
| 2026-04-28 10:31 | -28.40054 | 154.77435 | 34011 ft | 457 kts | 122° |
| 2026-04-28 10:32 | -28.41710 | 154.80507 | 34380 ft | 456 kts | 122° |
| 2026-04-28 10:32 | -28.43367 | 154.83577 | 34696 ft | 456 kts | 122° |
| 2026-04-28 10:32 | -28.45026 | 154.86649 | 34986 ft | 456 kts | 122° |
| 2026-04-28 10:32 | -28.46683 | 154.89726 | 35269 ft | 457 kts | 122° |
| 2026-04-28 10:33 | -28.48343 | 154.92809 | 35490 ft | 458 kts | 122° |
| 2026-04-28 10:33 | -28.50006 | 154.95900 | 35752 ft | 459 kts | 122° |
| 2026-04-28 10:33 | -28.51672 | 154.98995 | 36009 ft | 459 kts | 122° |
| 2026-04-28 10:33 | -28.53342 | 155.02095 | 36251 ft | 460 kts | 122° |
| 2026-04-28 10:34 | -28.55011 | 155.05203 | 36480 ft | 461 kts | 122° |
| 2026-04-28 10:34 | -28.56682 | 155.08313 | 36738 ft | 461 kts | 122° |
| 2026-04-28 10:34 | -28.58344 | 155.11418 | 37064 ft | 458 kts | 122° |
| 2026-04-28 10:34 | -28.59999 | 155.14513 | 37271 ft | 458 kts | 122° |
| 2026-04-28 10:35 | -28.61662 | 155.17623 | 37315 ft | 462 kts | 122° |
| 2026-04-28 10:35 | -28.65008 | 155.23884 | 37312 ft | 469 kts | 122° |
| 2026-04-28 10:36 | -28.68406 | 155.30235 | 37312 ft | 470 kts | 122° |
| 2026-04-28 10:36 | -28.71797 | 155.36593 | 37312 ft | 470 kts | 122° |
| 2026-04-28 10:37 | -28.75180 | 155.42969 | 37322 ft | 470 kts | 122° |
| 2026-04-28 10:37 | -28.78563 | 155.49341 | 37321 ft | 470 kts | 122° |
| 2026-04-28 10:38 | -28.81945 | 155.55717 | 37320 ft | 470 kts | 122° |
| 2026-04-28 10:38 | -28.85320 | 155.62103 | 37317 ft | 470 kts | 121° |
| 2026-04-28 10:39 | -28.88696 | 155.68494 | 37316 ft | 470 kts | 121° |
| 2026-04-28 10:39 | -28.92074 | 155.74880 | 37321 ft | 470 kts | 121° |
| 2026-04-28 10:40 | -28.95445 | 155.81269 | 37323 ft | 470 kts | 121° |
| 2026-04-28 10:40 | -28.98815 | 155.87665 | 37327 ft | 470 kts | 121° |
| 2026-04-28 10:41 | -29.02182 | 155.94062 | 37330 ft | 469 kts | 121° |
| 2026-04-28 10:41 | -29.05542 | 156.00461 | 37334 ft | 469 kts | 121° |
| 2026-04-28 10:42 | -29.08891 | 156.06862 | 37317 ft | 470 kts | 121° |
| 2026-04-28 10:42 | -29.12245 | 156.13290 | 37309 ft | 471 kts | 121° |
| 2026-04-28 10:43 | -29.15599 | 156.19724 | 37309 ft | 472 kts | 121° |
| 2026-04-28 10:43 | -29.18968 | 156.26177 | 37312 ft | 472 kts | 121° |
| 2026-04-28 10:44 | -29.22335 | 156.32633 | 37323 ft | 472 kts | 121° |
| 2026-04-28 10:44 | -29.25699 | 156.39093 | 37327 ft | 472 kts | 121° |
| 2026-04-28 10:45 | -29.29049 | 156.45562 | 37330 ft | 472 kts | 121° |
| 2026-04-28 10:45 | -29.32393 | 156.52039 | 37334 ft | 472 kts | 121° |
| 2026-04-28 10:46 | -29.35723 | 156.58466 | 37333 ft | 472 kts | 121° |
| 2026-04-28 10:46 | -29.39070 | 156.64941 | 37334 ft | 472 kts | 121° |
| 2026-04-28 10:47 | -29.42408 | 156.71417 | 37326 ft | 472 kts | 121° |
| 2026-04-28 10:47 | -29.45750 | 156.77903 | 37326 ft | 472 kts | 121° |
| 2026-04-28 10:48 | -29.49094 | 156.84397 | 37325 ft | 473 kts | 121° |
| 2026-04-28 10:48 | -29.52432 | 156.90912 | 37329 ft | 474 kts | 121° |
| 2026-04-28 10:49 | -29.55773 | 156.97437 | 37331 ft | 474 kts | 121° |
| 2026-04-28 10:49 | -29.59122 | 157.03965 | 37332 ft | 475 kts | 121° |
| 2026-04-28 10:50 | -29.62465 | 157.10510 | 37333 ft | 475 kts | 121° |
| 2026-04-28 10:50 | -29.65799 | 157.17065 | 37333 ft | 475 kts | 121° |
| 2026-04-28 10:51 | -29.69135 | 157.23636 | 37335 ft | 476 kts | 121° |
| 2026-04-28 10:51 | -29.72480 | 157.30208 | 37338 ft | 476 kts | 121° |
| 2026-04-28 10:52 | -29.75825 | 157.36785 | 37341 ft | 476 kts | 121° |
| 2026-04-28 10:52 | -29.79165 | 157.43370 | 37344 ft | 476 kts | 121° |
| 2026-04-28 10:53 | -29.82492 | 157.49963 | 37344 ft | 476 kts | 121° |
| 2026-04-28 10:53 | -29.85824 | 157.56558 | 37345 ft | 476 kts | 121° |
| 2026-04-28 10:54 | -29.89151 | 157.63151 | 37354 ft | 476 kts | 121° |
| 2026-04-28 10:54 | -29.92469 | 157.69755 | 37350 ft | 476 kts | 121° |
| 2026-04-28 10:55 | -29.95758 | 157.76310 | 37347 ft | 475 kts | 121° |
| 2026-04-28 10:55 | -29.99064 | 157.82899 | 37347 ft | 474 kts | 121° |
| 2026-04-28 10:56 | -30.02366 | 157.89487 | 37346 ft | 474 kts | 121° |
| 2026-04-28 10:56 | -30.05671 | 157.96075 | 37348 ft | 474 kts | 121° |
| 2026-04-28 10:57 | -30.08962 | 158.02675 | 37348 ft | 474 kts | 121° |
| 2026-04-28 10:57 | -30.12247 | 158.09282 | 37347 ft | 474 kts | 121° |
| 2026-04-28 10:58 | -30.15531 | 158.15885 | 37347 ft | 474 kts | 121° |
| 2026-04-28 10:58 | -30.18808 | 158.22492 | 37348 ft | 474 kts | 121° |
| 2026-04-28 10:59 | -30.22086 | 158.29111 | 37347 ft | 474 kts | 121° |
| 2026-04-28 10:59 | -30.25353 | 158.35730 | 37349 ft | 474 kts | 121° |
| 2026-04-28 11:00 | -30.28627 | 158.42349 | 37343 ft | 474 kts | 121° |
| 2026-04-28 11:00 | -30.31899 | 158.48975 | 37340 ft | 474 kts | 121° |
| 2026-04-28 11:01 | -30.35168 | 158.55613 | 37339 ft | 475 kts | 120° |
| 2026-04-28 11:01 | -30.38439 | 158.62247 | 37333 ft | 474 kts | 120° |
| 2026-04-28 11:02 | -30.41700 | 158.68895 | 37329 ft | 475 kts | 120° |
| 2026-04-28 11:02 | -30.44956 | 158.75553 | 37326 ft | 475 kts | 120° |
| 2026-04-28 11:03 | -30.48197 | 158.82186 | 37326 ft | 476 kts | 120° |
| 2026-04-28 11:03 | -30.51465 | 158.88867 | 37326 ft | 477 kts | 120° |
| 2026-04-28 11:04 | -30.54737 | 158.95574 | 37328 ft | 478 kts | 120° |
| 2026-04-28 11:04 | -30.58011 | 159.02295 | 37333 ft | 479 kts | 120° |
| 2026-04-28 11:05 | -30.61287 | 159.09039 | 37334 ft | 480 kts | 120° |
| 2026-04-28 11:05 | -30.64564 | 159.15793 | 37336 ft | 481 kts | 120° |
| 2026-04-28 11:06 | -30.67841 | 159.22567 | 37340 ft | 481 kts | 120° |
| 2026-04-28 11:06 | -30.71115 | 159.29359 | 37343 ft | 482 kts | 120° |
| 2026-04-28 11:07 | -30.74397 | 159.36159 | 37341 ft | 483 kts | 120° |
| 2026-04-28 11:07 | -30.77679 | 159.42974 | 37343 ft | 483 kts | 120° |
| 2026-04-28 11:08 | -30.80952 | 159.49785 | 37343 ft | 483 kts | 120° |
| 2026-04-28 11:08 | -30.84221 | 159.56605 | 37342 ft | 483 kts | 120° |
| 2026-04-28 11:09 | -30.87490 | 159.63426 | 37339 ft | 482 kts | 120° |
| 2026-04-28 11:09 | -30.90756 | 159.70249 | 37339 ft | 483 kts | 120° |
| 2026-04-28 11:10 | -30.94021 | 159.77083 | 37341 ft | 483 kts | 119° |
| 2026-04-28 11:10 | -30.97279 | 159.83934 | 37345 ft | 484 kts | 119° |
| 2026-04-28 11:11 | -31.00540 | 159.90790 | 37349 ft | 483 kts | 119° |
| 2026-04-28 11:11 | -31.03790 | 159.97640 | 37349 ft | 482 kts | 120° |
| 2026-04-28 11:12 | -31.07031 | 160.04473 | 37338 ft | 482 kts | 119° |
| 2026-04-28 11:12 | -31.10273 | 160.11325 | 37321 ft | 483 kts | 119° |
| 2026-04-28 11:13 | -31.13497 | 160.18151 | 37320 ft | 483 kts | 119° |
| 2026-04-28 11:13 | -31.16734 | 160.25030 | 37323 ft | 484 kts | 119° |
| 2026-04-28 11:14 | -31.19973 | 160.31920 | 37328 ft | 484 kts | 119° |
| 2026-04-28 11:14 | -31.23205 | 160.38810 | 37329 ft | 484 kts | 119° |
| 2026-04-28 11:15 | -31.26437 | 160.45705 | 37334 ft | 484 kts | 119° |
| 2026-04-28 11:15 | -31.29669 | 160.52596 | 37338 ft | 484 kts | 119° |
| 2026-04-28 11:16 | -31.32894 | 160.59502 | 37337 ft | 484 kts | 119° |
| 2026-04-28 11:16 | -31.36115 | 160.66415 | 37337 ft | 484 kts | 119° |
| 2026-04-28 11:17 | -31.38792 | 160.72173 | 37340 ft | 484 kts | 119° |
| 2026-04-28 11:17 | -31.42005 | 160.79097 | 37338 ft | 484 kts | 118° |
| 2026-04-28 11:18 | -31.45219 | 160.86034 | 37337 ft | 485 kts | 119° |
| 2026-04-28 11:18 | -31.48445 | 160.92981 | 37342 ft | 485 kts | 118° |
| 2026-04-28 11:19 | -31.51662 | 160.99933 | 37341 ft | 485 kts | 118° |
| 2026-04-28 11:19 | -31.54870 | 161.06892 | 37342 ft | 485 kts | 118° |
| 2026-04-28 11:20 | -31.58071 | 161.13862 | 37339 ft | 485 kts | 118° |
| 2026-04-28 11:20 | -31.61273 | 161.20833 | 37335 ft | 485 kts | 118° |
| 2026-04-28 11:21 | -31.64469 | 161.27809 | 37335 ft | 486 kts | 118° |
| 2026-04-28 11:21 | -31.67669 | 161.34805 | 37341 ft | 487 kts | 118° |
| 2026-04-28 11:22 | -31.70873 | 161.41807 | 37347 ft | 486 kts | 118° |
| 2026-04-28 11:22 | -31.74072 | 161.48815 | 37350 ft | 486 kts | 118° |
| 2026-04-28 11:23 | -31.77252 | 161.55821 | 37368 ft | 486 kts | 118° |